Time;durP1;ratioP1;P1;durP2;ratioP2;P2;SDS_P1;SDS_P2;PMS_P1;PMS_P2;Temp;Humidity;BMP_temperature;BMP_pressure;BME280_temperature;BME280_humidity;BME280_pressure;Samples;Min_cycle;Max_cycle;Signal;HPM_P1;HPM_P2
2023/04/24 00:00:36;;;;;;;1.27;1.17;;;10.90;99.90;;;;;;5088466;28;20176;-67
2023/04/24 00:03:02;;;;;;;3.30;1.70;;;10.90;99.90;;;;;;5088708;28;20718;-67
2023/04/24 00:05:28;;;;;;;2.90;1.17;;;10.90;99.90;;;;;;5077529;28;20202;-67
2023/04/24 00:07:55;;;;;;;2.90;1.60;;;10.90;99.90;;;;;;5070298;28;20447;-67
2023/04/24 00:10:20;;;;;;;1.53;1.30;;;11.00;99.90;;;;;;5072788;28;20271;-67
2023/04/24 00:12:46;;;;;;;1.60;1.10;;;11.00;99.90;;;;;;5085230;28;20469;-67
2023/04/24 00:15:11;;;;;;;1.57;1.40;;;10.90;99.90;;;;;;5082489;28;20196;-67
2023/04/24 00:17:37;;;;;;;1.77;1.30;;;10.90;99.90;;;;;;5080890;28;20209;-67
2023/04/24 00:20:04;;;;;;;2.00;0.97;;;10.90;99.90;;;;;;5081248;28;20207;-67
2023/04/24 00:22:30;;;;;;;1.73;1.63;;;10.90;99.90;;;;;;5073830;28;20181;-67
2023/04/24 00:24:56;;;;;;;1.50;1.37;;;11.00;99.90;;;;;;5077852;28;20492;-67
2023/04/24 00:27:22;;;;;;;1.10;1.00;;;11.00;99.90;;;;;;5083318;28;20521;-67
2023/04/24 00:29:47;;;;;;;1.70;1.43;;;11.00;99.90;;;;;;5067613;28;20285;-67
2023/04/24 00:32:14;;;;;;;1.27;1.10;;;11.00;99.90;;;;;;5077889;28;20191;-67
2023/04/24 00:34:40;;;;;;;1.40;1.13;;;11.00;99.90;;;;;;5071614;28;20291;-67
2023/04/24 00:37:05;;;;;;;3.70;1.00;;;11.00;99.90;;;;;;5075322;28;20998;-67
2023/04/24 00:39:31;;;;;;;1.30;1.20;;;11.00;99.90;;;;;;5081782;28;20474;-67
2023/04/24 00:41:57;;;;;;;1.53;1.10;;;11.10;99.90;;;;;;5083839;28;20264;-67
2023/04/24 00:44:23;;;;;;;1.07;0.87;;;11.10;99.90;;;;;;5070453;28;20204;-67
2023/04/24 00:46:54;;;;;;;1.33;1.20;;;11.10;99.90;;;;;;5079021;28;20181;-67
2023/04/24 00:49:21;;;;;;;1.20;1.10;;;11.10;99.90;;;;;;5079661;28;20208;-67
2023/04/24 00:51:46;;;;;;;2.00;1.00;;;11.10;99.90;;;;;;5079903;28;21254;-67
2023/04/24 00:54:15;;;;;;;3.20;1.43;;;11.10;99.90;;;;;;5081821;28;20465;-67
2023/04/24 00:56:42;;;;;;;1.20;1.10;;;11.10;99.90;;;;;;5080839;28;20208;-67
2023/04/24 00:59:08;;;;;;;1.10;1.00;;;11.10;99.90;;;;;;5067332;28;20504;-67
2023/04/24 01:01:34;;;;;;;1.13;1.03;;;11.10;99.90;;;;;;5072787;28;20485;-68
2023/04/24 01:04:00;;;;;;;1.80;1.57;;;11.10;99.90;;;;;;5071461;28;20525;-67
2023/04/24 01:06:30;;;;;;;0.90;0.90;;;11.10;99.90;;;;;;5064922;28;20487;-67
2023/04/24 01:08:58;;;;;;;0.90;0.90;;;11.10;99.90;;;;;;5070606;28;20454;-67
2023/04/24 01:11:25;;;;;;;1.20;1.10;;;11.20;99.90;;;;;;5076396;28;20435;-67
2023/04/24 01:13:50;;;;;;;1.27;1.17;;;11.20;99.90;;;;;;5082433;28;20431;-67
2023/04/24 01:16:17;;;;;;;6.10;1.40;;;11.20;99.90;;;;;;5068572;28;20463;-67
2023/04/24 01:18:43;;;;;;;2.27;1.40;;;11.10;99.90;;;;;;5069137;28;20587;-67
2023/04/24 01:21:11;;;;;;;1.10;1.00;;;11.10;99.90;;;;;;5080472;28;20431;-67
2023/04/24 01:23:36;;;;;;;2.33;1.23;;;11.10;99.90;;;;;;5081162;28;20925;-67
2023/04/24 01:26:02;;;;;;;2.53;0.90;;;11.10;99.90;;;;;;5081150;28;20504;-67
2023/04/24 01:28:28;;;;;;;2.30;1.97;;;11.10;99.90;;;;;;5076139;28;20197;-67
2023/04/24 01:30:53;;;;;;;1.23;1.00;;;11.10;99.90;;;;;;5068167;28;20173;-67
2023/04/24 01:33:21;;;;;;;1.40;1.30;;;11.00;99.90;;;;;;5068697;28;20235;-67
2023/04/24 01:35:48;;;;;;;1.47;1.37;;;10.90;99.90;;;;;;5072983;28;20630;-67
2023/04/24 01:38:13;;;;;;;0.97;0.97;;;10.90;99.90;;;;;;5085148;28;20917;-67
2023/04/24 01:40:39;;;;;;;1.30;1.20;;;10.80;99.90;;;;;;5071584;28;20526;-68
2023/04/24 01:43:05;;;;;;;1.47;1.20;;;10.80;99.90;;;;;;5070226;28;20188;-67
2023/04/24 01:45:30;;;;;;;1.50;1.20;;;10.80;99.90;;;;;;5078830;28;20184;-67
2023/04/24 01:47:56;;;;;;;2.40;1.50;;;10.80;99.90;;;;;;5081423;28;20187;-67
2023/04/24 01:50:22;;;;;;;1.40;1.20;;;10.80;99.90;;;;;;5070381;28;20200;-67
2023/04/24 01:52:47;;;;;;;1.63;1.53;;;10.80;99.90;;;;;;5067170;28;20446;-67
2023/04/24 01:55:13;;;;;;;1.77;1.60;;;10.80;99.90;;;;;;5079143;28;20621;-67
2023/04/24 01:57:39;;;;;;;2.20;1.90;;;10.70;99.90;;;;;;5072016;28;20239;-67
2023/04/24 02:00:06;;;;;;;1.67;1.17;;;10.70;99.90;;;;;;5082856;28;20191;-67
2023/04/24 02:02:32;;;;;;;2.93;1.13;;;10.70;99.90;;;;;;5082888;28;20441;-67
2023/04/24 02:04:57;;;;;;;1.57;1.33;;;10.70;99.90;;;;;;5073173;28;21080;-67
2023/04/24 02:07:23;;;;;;;1.63;1.50;;;10.70;99.90;;;;;;5070545;28;20646;-67
2023/04/24 02:09:49;;;;;;;1.77;1.50;;;10.70;99.90;;;;;;5065339;28;20213;-67
2023/04/24 02:12:17;;;;;;;1.30;1.20;;;10.70;99.90;;;;;;5073478;28;20216;-67
2023/04/24 02:14:43;;;;;;;1.10;1.00;;;10.70;99.90;;;;;;5079536;28;20189;-67
2023/04/24 02:17:09;;;;;;;1.33;1.23;;;10.60;99.90;;;;;;5078699;28;20469;-67
2023/04/24 02:19:34;;;;;;;1.57;1.47;;;10.50;99.90;;;;;;5079690;28;20455;-67
2023/04/24 02:22:00;;;;;;;1.33;1.10;;;10.50;99.90;;;;;;5079517;28;20165;-67
2023/04/24 02:24:25;;;;;;;1.90;1.27;;;10.40;99.90;;;;;;5070052;28;20173;-67
2023/04/24 02:26:51;;;;;;;1.43;1.33;;;10.40;99.90;;;;;;5079066;28;20252;-67
2023/04/24 02:29:16;;;;;;;2.93;1.67;;;10.40;99.90;;;;;;5066975;28;20193;-67
2023/04/24 02:31:42;;;;;;;1.53;1.40;;;10.40;99.90;;;;;;5070029;28;20527;-67
2023/04/24 02:34:07;;;;;;;1.40;1.30;;;10.40;99.90;;;;;;5081087;28;20180;-67
2023/04/24 02:36:33;;;;;;;2.20;1.53;;;10.40;99.90;;;;;;5075986;28;20673;-67
2023/04/24 02:38:58;;;;;;;2.50;1.27;;;10.40;99.90;;;;;;5079353;28;20200;-67
2023/04/24 02:41:24;;;;;;;2.50;1.23;;;10.40;99.90;;;;;;5071320;28;20277;-67
2023/04/24 02:43:50;;;;;;;2.07;1.50;;;10.40;99.90;;;;;;5072596;28;20177;-67
2023/04/24 02:46:15;;;;;;;2.30;1.27;;;10.40;99.90;;;;;;5076481;28;20188;-68
2023/04/24 02:48:41;;;;;;;1.70;1.40;;;10.40;99.90;;;;;;5082675;28;20294;-68
2023/04/24 02:51:06;;;;;;;2.40;1.10;;;10.40;99.90;;;;;;5079108;28;20213;-68
2023/04/24 02:53:32;;;;;;;3.40;1.47;;;10.40;99.90;;;;;;5074770;28;20891;-68
2023/04/24 02:55:57;;;;;;;1.50;1.40;;;10.30;99.90;;;;;;5069091;28;20185;-68
2023/04/24 02:58:23;;;;;;;3.10;1.97;;;10.30;99.90;;;;;;5069756;28;20197;-68
2023/04/24 03:00:49;;;;;;;1.37;1.27;;;10.30;99.90;;;;;;5080315;28;20598;-68
2023/04/24 03:03:15;;;;;;;2.70;1.50;;;10.20;99.90;;;;;;5077532;28;20684;-68
2023/04/24 03:05:40;;;;;;;1.63;1.53;;;10.20;99.90;;;;;;5075769;28;20177;-68
2023/04/24 03:08:06;;;;;;;2.30;1.50;;;10.20;99.90;;;;;;5078347;28;20530;-68
2023/04/24 03:10:32;;;;;;;3.07;1.50;;;10.20;99.90;;;;;;5070742;28;20177;-67
2023/04/24 03:12:57;;;;;;;2.13;1.63;;;10.10;99.90;;;;;;5064834;28;20185;-67
2023/04/24 03:15:23;;;;;;;1.57;1.47;;;10.10;99.90;;;;;;5064787;28;20178;-67
2023/04/24 03:17:48;;;;;;;2.50;1.27;;;10.00;99.90;;;;;;5077364;28;20688;-67
2023/04/24 03:20:14;;;;;;;1.63;1.13;;;10.00;99.90;;;;;;5082498;28;20204;-67
2023/04/24 03:22:39;;;;;;;2.43;1.50;;;9.90;99.90;;;;;;5076076;28;20236;-67
2023/04/24 03:25:06;;;;;;;1.40;1.20;;;9.90;99.90;;;;;;5063161;28;20436;-67
2023/04/24 03:27:31;;;;;;;2.37;2.00;;;9.90;99.90;;;;;;5065717;28;20708;-67
2023/04/24 03:29:57;;;;;;;1.83;1.37;;;9.80;99.90;;;;;;5074182;28;20456;-67
2023/04/24 03:32:22;;;;;;;3.83;1.60;;;9.80;99.90;;;;;;5070957;28;20180;-67
2023/04/24 03:34:49;;;;;;;1.63;1.53;;;9.80;99.90;;;;;;5079473;28;20257;-67
2023/04/24 03:37:15;;;;;;;1.67;1.57;;;9.80;99.90;;;;;;5072110;28;20254;-67
2023/04/24 03:39:40;;;;;;;1.70;1.60;;;9.90;99.90;;;;;;5082723;28;20455;-67
2023/04/24 03:42:06;;;;;;;3.60;1.40;;;9.90;99.90;;;;;;5075543;28;20450;-67
2023/04/24 03:44:31;;;;;;;1.47;1.20;;;9.80;99.90;;;;;;5081452;28;20608;-67
2023/04/24 03:46:58;;;;;;;2.50;1.63;;;9.90;99.90;;;;;;5070234;28;20177;-67
2023/04/24 03:49:23;;;;;;;2.77;1.70;;;9.80;99.90;;;;;;5086433;28;20224;-67
2023/04/24 03:51:49;;;;;;;1.80;1.70;;;9.80;99.90;;;;;;5068542;28;20459;-67
2023/04/24 03:54:14;;;;;;;1.47;1.37;;;9.80;99.90;;;;;;5084576;28;20263;-67
2023/04/24 03:56:40;;;;;;;3.00;1.60;;;9.80;99.90;;;;;;5079159;28;20227;-67
2023/04/24 03:59:05;;;;;;;1.30;1.10;;;9.70;99.90;;;;;;5061085;28;20236;-67
2023/04/24 04:01:31;;;;;;;2.53;1.33;;;9.70;99.90;;;;;;5063198;28;20182;-67
2023/04/24 04:03:56;;;;;;;1.50;1.40;;;9.70;99.90;;;;;;5082997;28;20510;-67
2023/04/24 04:06:22;;;;;;;3.10;1.40;;;9.70;99.90;;;;;;5083718;28;20546;-67
2023/04/24 04:08:47;;;;;;;2.23;1.10;;;9.60;99.90;;;;;;5079284;28;20774;-67
2023/04/24 04:11:13;;;;;;;1.60;1.50;;;9.60;99.90;;;;;;5082417;28;20711;-67
2023/04/24 04:13:39;;;;;;;2.73;1.43;;;9.70;99.90;;;;;;5081676;28;20184;-67
2023/04/24 04:16:05;;;;;;;1.40;1.30;;;9.70;99.90;;;;;;5065544;28;20181;-67
2023/04/24 04:18:30;;;;;;;1.40;1.30;;;9.70;99.90;;;;;;5080360;28;20206;-67
2023/04/24 04:20:56;;;;;;;2.97;1.80;;;9.80;99.90;;;;;;5083420;28;20183;-67
2023/04/24 04:23:22;;;;;;;1.50;1.40;;;9.80;99.90;;;;;;5077978;28;20174;-67
2023/04/24 04:25:48;;;;;;;1.70;1.30;;;9.90;99.90;;;;;;5061417;28;20447;-67
2023/04/24 04:28:13;;;;;;;4.50;1.13;;;9.90;99.90;;;;;;5085329;28;20514;-67
2023/04/24 04:30:39;;;;;;;2.30;1.10;;;9.90;99.90;;;;;;5074665;28;20642;-68
2023/04/24 04:33:05;;;;;;;3.60;2.03;;;9.80;99.90;;;;;;5067694;28;20604;-68
2023/04/24 04:35:31;;;;;;;2.00;1.80;;;9.70;99.90;;;;;;5064282;28;20428;-68
2023/04/24 04:37:58;;;;;;;4.30;2.17;;;9.60;99.90;;;;;;5063052;28;20294;-68
2023/04/24 04:40:24;;;;;;;2.43;2.20;;;9.50;99.90;;;;;;5080575;28;20177;-68
2023/04/24 04:42:52;;;;;;;2.20;2.10;;;9.40;99.90;;;;;;5071658;28;20827;-68
2023/04/24 04:45:18;;;;;;;3.03;1.90;;;9.30;99.90;;;;;;5084792;28;20454;-68
2023/04/24 04:47:44;;;;;;;3.60;3.30;;;9.20;99.90;;;;;;5073340;28;20470;-68
2023/04/24 04:50:10;;;;;;;2.17;1.97;;;9.20;99.90;;;;;;5062382;28;20201;-67
2023/04/24 04:52:36;;;;;;;2.23;2.13;;;9.20;99.90;;;;;;5075771;28;20176;-68
2023/04/24 04:55:01;;;;;;;2.20;2.00;;;9.20;99.90;;;;;;5078498;28;20464;-68
2023/04/24 04:57:27;;;;;;;4.20;2.37;;;9.20;99.90;;;;;;5085639;28;20230;-68
2023/04/24 04:59:53;;;;;;;3.03;2.50;;;9.20;99.90;;;;;;5093989;28;20430;-67
2023/04/24 05:02:18;;;;;;;3.27;2.97;;;9.20;99.90;;;;;;5063490;28;20650;-68
2023/04/24 05:04:44;;;;;;;3.00;2.80;;;9.20;99.90;;;;;;5071614;28;20184;-67
2023/04/24 05:07:10;;;;;;;2.73;2.53;;;9.20;99.90;;;;;;5086448;28;20592;-67
2023/04/24 05:09:37;;;;;;;6.27;3.20;;;9.10;99.90;;;;;;5080048;28;20459;-68
2023/04/24 05:12:03;;;;;;;3.20;2.33;;;9.20;99.90;;;;;;5070992;28;20435;-68
2023/04/24 05:14:28;;;;;;;3.30;3.10;;;9.20;99.90;;;;;;5085868;28;20437;-67
2023/04/24 05:16:54;;;;;;;3.07;2.70;;;9.20;99.90;;;;;;5069621;28;20231;-67
2023/04/24 05:19:19;;;;;;;2.50;2.30;;;9.30;99.90;;;;;;5080444;28;20542;-67
2023/04/24 05:21:45;;;;;;;2.80;2.60;;;9.20;99.90;;;;;;5080711;28;20203;-67
2023/04/24 05:24:10;;;;;;;2.60;2.40;;;9.20;99.90;;;;;;5081318;28;20185;-67
2023/04/24 05:26:36;;;;;;;2.73;2.53;;;9.20;99.90;;;;;;5088036;28;20188;-67
2023/04/24 05:29:02;;;;;;;2.87;2.67;;;9.20;99.90;;;;;;5070879;28;20198;-67
2023/04/24 05:31:27;;;;;;;4.57;3.03;;;9.20;99.90;;;;;;5070993;28;20650;-67
2023/04/24 05:33:53;;;;;;;4.53;2.30;;;9.20;99.90;;;;;;5067923;28;20443;-67
2023/04/24 05:36:19;;;;;;;2.90;2.60;;;9.30;99.90;;;;;;5069194;28;20234;-67
2023/04/24 05:38:44;;;;;;;2.93;2.70;;;9.30;99.90;;;;;;5063563;28;20200;-67
2023/04/24 05:41:10;;;;;;;8.73;3.50;;;9.30;99.90;;;;;;5081119;28;20833;-67
2023/04/24 05:43:35;;;;;;;2.83;2.63;;;9.40;99.90;;;;;;5073349;28;20227;-67
2023/04/24 05:46:01;;;;;;;3.50;3.20;;;9.40;99.90;;;;;;5080332;28;20173;-67
2023/04/24 05:48:26;;;;;;;2.80;2.60;;;9.40;99.90;;;;;;5080585;28;20280;-67
2023/04/24 05:50:52;;;;;;;3.10;2.90;;;9.50;99.90;;;;;;5071700;28;20547;-67
2023/04/24 05:53:18;;;;;;;4.17;3.80;;;9.50;99.90;;;;;;5072825;28;20177;-67
2023/04/24 05:55:44;;;;;;;3.50;3.30;;;9.60;99.90;;;;;;5074057;28;20278;-67
2023/04/24 05:58:10;;;;;;;5.43;3.67;;;9.60;99.90;;;;;;5085179;28;20468;-67
2023/04/24 06:00:36;;;;;;;5.00;3.97;;;9.70;99.90;;;;;;5073105;28;20528;-67
2023/04/24 06:03:03;;;;;;;3.73;3.00;;;9.70;99.90;;;;;;5078532;28;20186;-67
2023/04/24 06:05:29;;;;;;;2.70;2.50;;;9.70;99.90;;;;;;5066475;28;20642;-69
2023/04/24 06:07:55;;;;;;;3.93;3.07;;;9.70;99.90;;;;;;5070726;28;20522;-68
2023/04/24 06:10:21;;;;;;;3.90;3.27;;;9.80;99.90;;;;;;5074051;28;21018;-68
2023/04/24 06:12:46;;;;;;;11.90;4.30;;;9.80;99.90;;;;;;5075912;28;20177;-67
2023/04/24 06:15:12;;;;;;;3.63;2.80;;;9.80;99.90;;;;;;5083750;28;20207;-68
2023/04/24 06:17:38;;;;;;;5.07;3.50;;;9.90;99.90;;;;;;5076027;28;20205;-68
2023/04/24 06:20:05;;;;;;;3.93;3.53;;;9.90;99.90;;;;;;5065947;28;20447;-67
2023/04/24 06:22:31;;;;;;;5.07;3.00;;;10.20;99.90;;;;;;5067855;28;20207;-69
2023/04/24 06:24:56;;;;;;;3.37;3.07;;;10.50;99.90;;;;;;5079152;28;20469;-70
2023/04/24 06:27:22;;;;;;;3.20;2.90;;;10.80;99.90;;;;;;5074207;28;20578;-69
2023/04/24 06:29:54;;;;;;;3.90;2.80;;;11.20;99.90;;;;;;5068762;28;20199;-68
2023/04/24 06:32:20;;;;;;;3.07;2.77;;;11.40;99.90;;;;;;5072855;28;20175;-68
2023/04/24 06:34:46;;;;;;;3.13;2.73;;;11.70;99.90;;;;;;5067743;28;20944;-69
2023/04/24 06:37:11;;;;;;;3.10;2.63;;;12.00;99.90;;;;;;5063021;28;20462;-69
2023/04/24 06:39:37;;;;;;;3.60;3.30;;;12.30;99.90;;;;;;5063592;28;20247;-69
2023/04/24 06:42:02;;;;;;;3.23;3.03;;;12.70;99.90;;;;;;5068742;28;20186;-68
2023/04/24 06:44:28;;;;;;;4.90;4.10;;;12.80;99.90;;;;;;5070841;28;20178;-69
2023/04/24 06:46:53;;;;;;;3.40;3.10;;;12.90;99.90;;;;;;5077298;28;20580;-70
2023/04/24 06:49:19;;;;;;;3.50;2.67;;;13.00;99.90;;;;;;5076876;28;20200;-68
2023/04/24 06:51:45;;;;;;;4.87;2.47;;;13.10;99.90;;;;;;5064702;28;20173;-69
2023/04/24 06:54:10;;;;;;;3.30;3.00;;;13.30;99.90;;;;;;5070023;28;20488;-69
2023/04/24 06:56:36;;;;;;;3.17;2.87;;;13.40;99.90;;;;;;5069365;28;20665;-68
2023/04/24 06:59:02;;;;;;;3.27;2.97;;;13.60;99.90;;;;;;5060414;28;20193;-69
2023/04/24 07:01:27;;;;;;;5.53;3.57;;;13.70;99.90;;;;;;5062746;28;20195;-68
2023/04/24 07:03:53;;;;;;;3.50;2.87;;;13.60;99.90;;;;;;5065961;28;20176;-67
2023/04/24 07:06:21;;;;;;;3.20;3.00;;;13.50;99.90;;;;;;5066114;28;20185;-68
2023/04/24 07:08:47;;;;;;;2.53;2.17;;;13.50;99.90;;;;;;5065305;28;20193;-70
2023/04/24 07:11:12;;;;;;;3.93;2.67;;;13.60;99.90;;;;;;5078837;28;20427;-68
2023/04/24 07:13:41;;;;;;;3.10;2.00;;;13.60;99.90;;;;;;5069035;28;20431;-67
2023/04/24 07:16:08;;;;;;;5.30;3.10;;;13.50;99.90;;;;;;5062729;28;20526;-68
2023/04/24 07:18:33;;;;;;;5.53;2.53;;;13.20;99.90;;;;;;5070500;28;20451;-68
2023/04/24 07:20:59;;;;;;;6.13;3.00;;;12.60;99.90;;;;;;5078293;28;20454;-68
2023/04/24 07:23:24;;;;;;;2.50;2.00;;;12.10;99.90;;;;;;5064389;28;20212;-68
2023/04/24 07:25:50;;;;;;;3.17;2.47;;;11.80;99.90;;;;;;5066982;28;21272;-68
2023/04/24 07:28:17;;;;;;;3.37;2.43;;;11.70;99.90;;;;;;5071577;28;20197;-67
2023/04/24 07:30:43;;;;;;;3.77;3.30;;;11.60;99.90;;;;;;5069939;28;20543;-69
2023/04/24 07:33:11;;;;;;;2.57;2.37;;;11.70;99.90;;;;;;5068063;28;20439;-69
2023/04/24 07:35:36;;;;;;;3.17;2.50;;;11.70;99.90;;;;;;5067355;28;20196;-69
2023/04/24 07:38:02;;;;;;;2.27;1.73;;;11.80;99.90;;;;;;5066292;28;20467;-68
2023/04/24 07:40:27;;;;;;;2.97;1.90;;;12.20;99.90;;;;;;5068253;28;20650;-68
2023/04/24 07:42:53;;;;;;;2.03;1.80;;;12.70;99.90;;;;;;5064436;28;20179;-68
2023/04/24 07:45:18;;;;;;;1.70;1.60;;;13.30;99.90;;;;;;5067306;28;20522;-68
2023/04/24 07:47:45;;;;;;;2.83;2.00;;;13.70;99.90;;;;;;5070127;28;20268;-68
2023/04/24 07:50:11;;;;;;;2.60;2.40;;;13.70;99.90;;;;;;5068766;28;20196;-70
2023/04/24 07:52:37;;;;;;;2.30;2.10;;;13.60;99.90;;;;;;5061285;28;20944;-70
2023/04/24 07:55:03;;;;;;;3.63;2.10;;;13.30;99.90;;;;;;5064333;28;20446;-71
2023/04/24 07:57:28;;;;;;;3.13;2.10;;;12.90;99.90;;;;;;5061224;28;20734;-70
2023/04/24 07:59:55;;;;;;;4.27;2.77;;;12.90;99.90;;;;;;5061302;28;20972;-68
2023/04/24 08:02:25;;;;;;;2.07;1.80;;;13.00;99.90;;;;;;5064075;28;20260;-71
2023/04/24 08:04:52;;;;;;;4.60;2.00;;;13.00;99.90;;;;;;5064679;28;20546;-70
2023/04/24 08:07:18;;;;;;;2.00;1.87;;;13.00;99.90;;;;;;5068917;28;20438;-69
2023/04/24 08:09:43;;;;;;;2.10;1.90;;;12.80;99.90;;;;;;5075227;28;20817;-71
2023/04/24 08:12:09;;;;;;;2.13;1.80;;;12.60;99.90;;;;;;5079382;28;20188;-71
2023/04/24 08:14:35;;;;;;;2.30;2.10;;;12.40;99.90;;;;;;5076771;28;20263;-70
2023/04/24 08:17:01;;;;;;;1.63;1.53;;;12.20;99.90;;;;;;5077335;28;20346;-71
2023/04/24 08:19:26;;;;;;;3.60;3.27;;;12.20;99.90;;;;;;5065359;28;20250;-70
2023/04/24 08:21:52;;;;;;;2.57;1.90;;;12.30;99.90;;;;;;5071665;28;20537;-70
2023/04/24 08:24:17;;;;;;;1.60;1.50;;;12.50;99.90;;;;;;5081675;28;20180;-70
2023/04/24 08:26:43;;;;;;;6.83;2.20;;;12.70;99.90;;;;;;5074745;28;20254;-71
2023/04/24 08:29:08;;;;;;;1.77;1.67;;;13.10;99.90;;;;;;5071056;28;20215;-71
2023/04/24 08:31:35;;;;;;;2.40;2.20;;;13.50;99.90;;;;;;5070470;28;20177;-71
2023/04/24 08:34:00;;;;;;;3.33;1.83;;;13.90;99.90;;;;;;5069386;28;20180;-72
2023/04/24 08:36:26;;;;;;;2.00;1.90;;;14.20;99.90;;;;;;5076760;28;20434;-69
2023/04/24 08:38:52;;;;;;;3.07;1.73;;;14.30;99.90;;;;;;5083149;28;20209;-71
2023/04/24 08:41:18;;;;;;;2.07;1.97;;;14.50;99.90;;;;;;5088210;28;20461;-71
2023/04/24 08:43:46;;;;;;;2.30;2.10;;;14.80;99.90;;;;;;5070191;28;20500;-71
2023/04/24 08:46:13;;;;;;;3.03;1.60;;;15.10;99.90;;;;;;5073573;28;20426;-72
2023/04/24 08:48:39;;;;;;;1.80;1.70;;;15.00;99.90;;;;;;5077814;28;20470;-71
2023/04/24 08:51:07;;;;;;;3.13;2.30;;;14.80;99.90;;;;;;5068798;28;20431;-71
2023/04/24 08:53:34;;;;;;;2.10;1.90;;;14.70;99.90;;;;;;5068860;28;20439;-69
2023/04/24 08:56:01;;;;;;;2.67;2.43;;;15.20;99.90;;;;;;5065191;28;20960;-71
2023/04/24 08:58:27;;;;;;;2.50;2.30;;;15.30;99.90;;;;;;5064670;28;20466;-70
2023/04/24 09:00:56;;;;;;;2.37;2.17;;;15.10;99.90;;;;;;5061460;28;20892;-71
2023/04/24 09:03:22;;;;;;;2.10;1.97;;;14.80;99.90;;;;;;5062323;28;20473;-70
2023/04/24 09:05:50;;;;;;;2.90;2.70;;;15.00;99.90;;;;;;5061140;28;20973;-69
2023/04/24 09:08:17;;;;;;;2.67;2.40;;;15.00;99.90;;;;;;5066007;28;20197;-70
2023/04/24 09:10:43;;;;;;;4.13;2.50;;;15.20;99.90;;;;;;5070099;28;20514;-70
2023/04/24 09:13:09;;;;;;;2.97;2.57;;;15.20;99.90;;;;;;5064802;28;20582;-70
2023/04/24 09:15:39;;;;;;;2.73;2.53;;;14.90;99.90;;;;;;5062301;28;20189;-70
2023/04/24 09:18:05;;;;;;;2.70;2.37;;;14.50;99.90;;;;;;5070661;28;20964;-71
2023/04/24 09:20:31;;;;;;;3.03;2.70;;;14.50;99.90;;;;;;5068584;28;20450;-70
2023/04/24 09:22:57;;;;;;;2.03;1.80;;;14.20;99.90;;;;;;5070687;28;20266;-70
2023/04/24 09:25:31;;;;;;;2.93;2.00;;;14.00;99.90;;;;;;5069880;28;20484;-70
2023/04/24 09:28:04;;;;;;;4.60;2.37;;;13.90;99.90;;;;;;5080633;28;20435;-70
2023/04/24 09:30:30;;;;;;;3.00;2.37;;;14.00;99.90;;;;;;5077441;28;20975;-70
2023/04/24 09:33:16;;;;;;;4.37;1.90;;;14.60;99.90;;;;;;5078124;28;20438;-70
2023/04/24 09:35:45;;;;;;;2.40;2.10;;;15.80;99.90;;;;;;5067109;28;20177;-67
2023/04/24 09:38:11;;;;;;;3.53;1.57;;;16.50;99.90;;;;;;5069635;28;20482;-67
2023/04/24 09:40:36;;;;;;;2.80;1.83;;;16.60;97.30;;;;;;5070679;28;20470;-68
2023/04/24 09:43:02;;;;;;;2.87;1.80;;;16.40;99.40;;;;;;5072947;28;20176;-67
2023/04/24 09:45:34;;;;;;;2.03;1.57;;;16.60;96.90;;;;;;5072486;28;20172;-67
2023/04/24 09:48:00;;;;;;;4.97;1.80;;;16.40;96.80;;;;;;5073391;28;20474;-68
2023/04/24 09:50:25;;;;;;;1.93;1.70;;;16.20;96.20;;;;;;5072457;28;21121;-68
2023/04/24 09:53:03;;;;;;;1.90;1.80;;;15.60;96.30;;;;;;5072911;28;20173;-68
2023/04/24 09:55:29;;;;;;;2.60;1.57;;;14.90;98.40;;;;;;5072744;28;20180;-68
2023/04/24 09:58:00;;;;;;;4.33;2.17;;;14.50;98.20;;;;;;5062971;28;20824;-68
2023/04/24 10:00:30;;;;;;;2.00;1.80;;;14.50;98.80;;;;;;5070914;28;20435;-67
2023/04/24 10:03:04;;;;;;;2.17;1.60;;;14.20;98.30;;;;;;5059214;28;20788;-70
2023/04/24 10:05:35;;;;;;;1.40;1.30;;;14.00;99.90;;;;;;5067296;28;20438;-69
2023/04/24 10:08:03;;;;;;;1.77;1.60;;;13.90;99.90;;;;;;5072074;28;20435;-68
2023/04/24 10:10:30;;;;;;;1.70;1.40;;;15.00;99.80;;;;;;5070187;28;20467;-67
2023/04/24 10:12:56;;;;;;;1.70;1.60;;;16.80;96.80;;;;;;5081211;28;20435;-69
2023/04/24 10:15:22;;;;;;;1.93;1.43;;;18.20;92.70;;;;;;5076675;28;20435;-68
2023/04/24 10:17:52;;;;;;;1.60;1.50;;;19.00;86.20;;;;;;5071673;28;20560;-68
2023/04/24 10:20:30;;;;;;;1.60;1.50;;;19.20;79.60;;;;;;5076323;28;20199;-64
2023/04/24 10:22:57;;;;;;;2.50;1.60;;;18.90;77.80;;;;;;5069484;28;20456;-65
2023/04/24 10:25:25;;;;;;;1.50;1.40;;;19.90;76.20;;;;;;5070338;28;20427;-66
2023/04/24 10:27:51;;;;;;;1.93;1.83;;;20.10;72.70;;;;;;5066142;28;20780;-64
2023/04/24 10:30:18;;;;;;;1.97;1.87;;;19.80;69.50;;;;;;5070170;28;20489;-66
2023/04/24 10:32:44;;;;;;;2.30;1.50;;;19.30;72.20;;;;;;5070158;28;20441;-70
2023/04/24 10:35:13;;;;;;;2.60;1.80;;;19.80;71.60;;;;;;5066154;28;20427;-68
2023/04/24 10:37:48;;;;;;;1.90;1.80;;;19.00;69.40;;;;;;5069910;28;20197;-67
2023/04/24 10:40:29;;;;;;;1.60;1.50;;;17.90;73.80;;;;;;5068508;28;20446;-67
2023/04/24 10:42:56;;;;;;;2.00;1.80;;;18.10;76.60;;;;;;5075227;28;20434;-66
2023/04/24 10:45:23;;;;;;;1.80;1.70;;;17.50;76.60;;;;;;5071761;28;20419;-67
2023/04/24 10:48:13;;;;;;;2.13;1.70;;;17.10;76.90;;;;;;5068684;28;20485;-67
2023/04/24 10:50:47;;;;;;;1.90;1.80;;;16.20;81.90;;;;;;5070572;28;20435;-67
2023/04/24 10:53:17;;;;;;;2.87;1.60;;;15.80;85.20;;;;;;5066257;28;21347;-67
2023/04/24 10:55:58;;;;;;;1.50;1.40;;;15.80;88.00;;;;;;5065733;28;20451;-67
2023/04/24 10:58:24;;;;;;;2.23;2.03;;;15.10;90.50;;;;;;5051351;28;20464;-67
2023/04/24 11:00:58;;;;;;;1.67;1.57;;;14.50;92.50;;;;;;5056348;28;21182;-67
2023/04/24 11:03:26;;;;;;;2.60;1.50;;;14.30;93.60;;;;;;5070848;28;20427;-67
2023/04/24 11:06:06;;;;;;;2.10;1.50;;;14.10;95.00;;;;;;5071382;28;20830;-68
2023/04/24 11:08:42;;;;;;;1.60;1.50;;;13.80;96.60;;;;;;5088908;22;20505;-73
2023/04/24 11:11:12;;;;;;;1.97;1.50;;;13.60;98.40;;;;;;4991228;28;20449;-71
2023/04/24 11:13:56;;;;;;;1.90;1.80;;;13.50;98.30;;;;;;4990833;28;20547;-71
2023/04/24 11:16:32;;;;;;;1.50;1.40;;;13.40;99.40;;;;;;4976158;28;20446;-74
2023/04/24 11:19:16;;;;;;;1.70;1.60;;;13.30;99.90;;;;;;4987529;28;20437;-72
2023/04/24 11:22:14;;;;;;;1.50;1.40;;;13.10;99.90;;;;;;5009173;28;20517;-73
2023/04/24 11:24:46;;;;;;;2.63;1.90;;;13.20;99.90;;;;;;4992488;28;20422;-73
2023/04/24 11:27:20;;;;;;;2.10;1.40;;;13.50;99.90;;;;;;5009987;28;20421;-74
2023/04/24 11:29:55;;;;;;;1.73;1.63;;;14.30;99.90;;;;;;5009581;28;20527;-74
2023/04/24 11:32:26;;;;;;;3.87;2.00;;;15.60;96.30;;;;;;5000827;28;20440;-74
2023/04/24 11:35:15;;;;;;;1.73;1.63;;;16.00;92.40;;;;;;5012916;28;20422;-72
2023/04/24 11:37:43;;;;;;;2.20;1.70;;;16.20;91.10;;;;;;5011696;28;20499;-72
2023/04/24 11:40:10;;;;;;;1.70;1.60;;;16.10;92.10;;;;;;5011886;28;20450;-72
2023/04/24 11:42:42;;;;;;;4.20;1.33;;;15.30;93.10;;;;;;5004075;28;20451;-73
2023/04/24 11:45:10;;;;;;;2.07;1.97;;;14.30;95.80;;;;;;4993373;28;20446;-72
2023/04/24 11:47:36;;;;;;;3.30;2.70;;;13.70;99.90;;;;;;5006281;28;20520;-73
2023/04/24 11:50:03;;;;;;;1.87;1.63;;;13.60;99.90;;;;;;5011644;28;20523;-73
2023/04/24 11:52:30;;;;;;;2.40;2.20;;;13.70;99.90;;;;;;5011786;28;20175;-73
2023/04/24 11:54:55;;;;;;;2.03;1.93;;;13.70;99.90;;;;;;5009939;28;20438;-71
2023/04/24 11:57:28;;;;;;;2.30;2.10;;;13.80;99.90;;;;;;5015073;28;20485;-72
2023/04/24 11:59:54;;;;;;;2.33;2.17;;;14.30;99.80;;;;;;5011600;28;20278;-73
2023/04/24 12:02:24;;;;;;;2.63;2.43;;;14.70;99.00;;;;;;5011258;28;20976;-73
2023/04/24 12:04:49;;;;;;;2.27;2.00;;;15.60;95.10;;;;;;5007225;28;20185;-73
2023/04/24 12:07:15;;;;;;;3.13;2.93;;;15.30;95.10;;;;;;5014878;28;20524;-73
2023/04/24 12:09:45;;;;;;;2.97;2.30;;;15.10;96.80;;;;;;5004053;28;20243;-71
2023/04/24 12:12:12;;;;;;;2.43;2.20;;;14.80;96.50;;;;;;5011096;28;20193;-73
2023/04/24 12:14:47;;;;;;;1.80;1.70;;;14.30;98.40;;;;;;5008655;28;20430;-73
2023/04/24 12:17:13;;;;;;;2.00;1.90;;;13.90;99.90;;;;;;5012766;28;20828;-73
2023/04/24 12:19:48;;;;;;;1.87;1.77;;;13.60;99.90;;;;;;5009321;28;20449;-72
2023/04/24 12:22:14;;;;;;;2.10;1.97;;;13.30;99.90;;;;;;5009210;28;20644;-73
2023/04/24 12:25:03;;;;;;;2.30;2.10;;;13.30;99.90;;;;;;5009546;28;20491;-74
2023/04/24 12:27:31;;;;;;;2.83;1.90;;;13.30;99.90;;;;;;5005762;28;20925;-73
2023/04/24 12:29:59;;;;;;;3.80;2.40;;;13.40;99.90;;;;;;5010120;28;20457;-73
2023/04/24 12:32:25;;;;;;;2.27;2.17;;;13.70;99.90;;;;;;5007871;28;20468;-73
2023/04/24 12:34:51;;;;;;;2.00;1.90;;;13.70;99.90;;;;;;5009377;28;20433;-73
2023/04/24 12:37:17;;;;;;;2.43;2.23;;;13.60;99.90;;;;;;5004492;28;20538;-73
2023/04/24 12:40:07;;;;;;;2.90;1.87;;;13.70;99.40;;;;;;5003804;28;20473;-73
2023/04/24 12:42:33;;;;;;;1.50;1.40;;;13.90;99.90;;;;;;4998270;28;20434;-73
2023/04/24 12:45:03;;;;;;;3.80;2.10;;;13.90;99.90;;;;;;5012522;28;20931;-73
2023/04/24 12:47:28;;;;;;;2.17;1.97;;;14.00;99.70;;;;;;5005396;28;20437;-72